Time;durP1;ratioP1;P1;durP2;ratioP2;P2;SDS_P1;SDS_P2;PMS_P1;PMS_P2;Temp;Humidity;BMP_temperature;BMP_pressure;BME280_temperature;BME280_humidity;BME280_pressure;Samples;Min_cycle;Max_cycle;Signal;HPM_P1;HPM_P2
2023/09/25 03:59:46;;;;;;;0.95;0.82;;;;;;;15.62;100.00;100973.09;5836546;27;20153;-86
2023/09/25 04:02:50;;;;;;;0.65;0.65;;;;;;;15.69;100.00;100984.03;5431275;32;34275;-86
2023/09/25 04:05:53;;;;;;;1.85;1.42;;;;;;;15.73;100.00;100985.28;5422641;32;34158;-86
2023/09/25 04:08:56;;;;;;;1.80;0.70;;;;;;;15.83;100.00;100988.53;5435915;32;34490;-86
2023/09/25 04:11:59;;;;;;;1.02;0.93;;;;;;;15.87;100.00;100987.91;5422510;32;34104;-86
2023/09/25 04:15:12;;;;;;;1.40;1.00;;;;;;;15.91;100.00;100985.63;5410731;32;33405;-86
2023/09/25 04:18:18;;;;;;;1.08;0.98;;;;;;;15.96;100.00;101001.34;5435859;32;33209;-86
2023/09/25 04:21:21;;;;;;;1.27;0.98;;;;;;;15.99;100.00;101001.78;5422235;32;33000;-86
2023/09/25 04:24:25;;;;;;;1.50;1.10;;;;;;;16.02;100.00;101003.25;5422871;32;34028;-86
2023/09/25 04:27:29;;;;;;;2.45;1.10;;;;;;;16.00;100.00;101002.63;5422373;32;33714;-86
2023/09/25 04:30:32;;;;;;;1.83;1.30;;;;;;;16.01;100.00;101007.88;5436053;32;33093;-86
2023/09/25 04:33:36;;;;;;;1.80;0.90;;;;;;;16.12;100.00;101014.62;5422252;32;33676;-85
2023/09/25 04:36:39;;;;;;;1.95;1.15;;;;;;;16.15;100.00;101011.53;5421681;32;33594;-85
2023/09/25 04:39:42;;;;;;;1.75;1.27;;;;;;;16.17;100.00;101017.56;5422140;32;33064;-85
2023/09/25 04:42:45;;;;;;;1.17;1.10;;;;;;;16.29;100.00;101034.16;5422714;32;33372;-85
2023/09/25 04:45:51;;;;;;;1.27;1.15;;;;;;;16.23;100.00;101024.09;5432363;32;33902;-84
2023/09/25 04:48:54;;;;;;;1.83;1.42;;;;;;;16.22;100.00;101025.12;5429519;32;33714;-85
2023/09/25 04:51:58;;;;;;;1.30;1.20;;;;;;;16.21;100.00;101027.03;5425367;32;33632;-85
2023/09/25 04:55:12;;;;;;;2.25;1.52;;;;;;;16.25;100.00;101024.72;5426489;32;34353;-85
2023/09/25 04:58:15;;;;;;;4.35;1.20;;;;;;;16.27;100.00;101017.22;5422601;32;33361;-85
2023/09/25 05:01:18;;;;;;;2.62;1.33;;;;;;;16.34;100.00;101023.53;5402825;32;33217;-85
2023/09/25 05:04:21;;;;;;;2.47;0.80;;;;;;;16.38;100.00;101027.56;5403304;32;33390;-84
2023/09/25 05:07:25;;;;;;;4.43;1.30;;;;;;;16.35;100.00;101022.53;5415068;32;34109;-84
2023/09/25 05:10:29;;;;;;;2.67;1.40;;;;;;;16.44;100.00;101023.16;5402646;32;33232;-85
2023/09/25 05:13:33;;;;;;;1.87;1.05;;;;;;;16.46;100.00;101024.66;5415462;32;34270;-85
2023/09/25 05:16:36;;;;;;;2.12;1.50;;;;;;;16.46;100.00;101023.81;5416652;32;33729;-85
2023/09/25 05:19:39;;;;;;;4.07;1.90;;;;;;;16.44;100.00;101024.03;5417028;32;33340;-84
2023/09/25 05:22:44;;;;;;;1.50;1.40;;;;;;;16.46;100.00;101027.34;5415521;32;33045;-84
2023/09/25 05:25:48;;;;;;;1.45;1.25;;;;;;;16.60;100.00;101028.28;5414762;32;33298;-84
2023/09/25 05:28:51;;;;;;;2.83;1.23;;;;;;;16.65;100.00;101033.97;5415541;32;33863;-88
2023/09/25 05:31:54;;;;;;;1.42;1.27;;;;;;;16.69;100.00;101043.37;5406752;32;33655;-88
2023/09/25 05:34:56;;;;;;;4.72;1.45;;;;;;;16.71;100.00;101044.03;5421613;32;33734;-88
2023/09/25 05:38:00;;;;;;;1.10;1.02;;;;;;;16.77;100.00;101035.09;5403449;32;33825;-88
2023/09/25 05:41:03;;;;;;;3.30;1.35;;;;;;;16.86;100.00;101043.91;5416477;32;33699;-85
2023/09/25 05:44:06;;;;;;;2.40;1.48;;;;;;;16.87;100.00;101045.56;5420231;32;33496;-85
2023/09/25 05:47:09;;;;;;;1.90;1.20;;;;;;;16.94;100.00;101049.19;5414794;32;33210;-84
2023/09/25 05:50:12;;;;;;;5.43;1.37;;;;;;;16.91;100.00;101043.31;5416312;32;33362;-85
2023/09/25 05:53:15;;;;;;;2.70;1.35;;;;;;;16.88;100.00;101050.00;5401657;32;33360;-84
2023/09/25 05:56:18;;;;;;;2.37;1.62;;;;;;;16.91;100.00;101062.34;5405721;32;33418;-84
2023/09/25 05:59:21;;;;;;;1.40;1.20;;;;;;;17.05;100.00;101068.66;5390171;32;33176;-85
2023/09/25 06:02:25;;;;;;;3.10;1.42;;;;;;;17.24;100.00;101076.06;5385091;32;33114;-85
2023/09/25 06:05:36;;;;;;;4.10;1.40;;;;;;;17.33;100.00;101074.00;5386283;33;34031;-84
2023/09/25 06:08:39;;;;;;;2.47;1.42;;;;;;;17.38;100.00;101085.94;5396852;33;33285;-85
2023/09/25 06:11:42;;;;;;;1.42;1.02;;;;;;;17.45;100.00;101096.84;5391289;32;33334;-84
2023/09/25 06:14:45;;;;;;;1.48;1.37;;;;;;;17.52;100.00;101096.84;5403281;32;33646;-85
2023/09/25 06:17:49;;;;;;;2.90;1.40;;;;;;;17.45;100.00;101088.69;5375659;32;33251;-85
2023/09/25 06:20:52;;;;;;;3.42;0.90;;;;;;;17.55;100.00;101094.59;5390695;32;33043;-85
2023/09/25 06:23:55;;;;;;;4.20;1.77;;;;;;;17.70;100.00;101097.13;5390505;32;35499;-84
2023/09/25 06:26:59;;;;;;;6.35;2.00;;;;;;;17.85;100.00;101095.06;5403216;32;33511;-85
2023/09/25 06:30:03;;;;;;;1.60;1.10;;;;;;;17.90;100.00;101091.69;5403470;32;33574;-85
2023/09/25 06:33:06;;;;;;;3.80;1.35;;;;;;;17.96;100.00;101088.19;5403048;32;33800;-84
2023/09/25 06:36:10;;;;;;;3.97;1.30;;;;;;;18.04;100.00;101093.38;5403785;32;33164;-84
2023/09/25 06:39:13;;;;;;;2.80;1.33;;;;;;;18.04;100.00;101093.38;5405108;32;32801;-84
2023/09/25 06:42:16;;;;;;;3.35;1.23;;;;;;;17.95;100.00;101096.53;5393586;32;34169;-84
2023/09/25 06:45:21;;;;;;;2.30;1.40;;;;;;;17.94;100.00;101108.50;5392542;32;33383;-84
2023/09/25 06:48:25;;;;;;;3.50;1.42;;;;;;;18.02;100.00;101113.75;5407012;32;34258;-84
2023/09/25 06:51:29;;;;;;;4.05;1.30;;;;;;;18.28;100.00;101116.47;5394768;32;34042;-84
2023/09/25 06:54:32;;;;;;;1.87;1.17;;;;;;;18.52;100.00;101128.59;5386099;32;33140;-85
2023/09/25 06:57:38;;;;;;;3.22;1.10;;;;;;;18.59;100.00;101132.16;5401359;32;34020;-84
2023/09/25 07:00:44;;;;;;;1.87;1.25;;;;;;;18.72;100.00;101141.34;5404782;32;33194;-84
2023/09/25 07:03:59;;;;;;;1.80;0.90;;;;;;;18.74;100.00;101137.38;5414284;32;33650;-84
2023/09/25 07:07:02;;;;;;;7.68;1.50;;;;;;;18.87;100.00;101136.53;5385490;32;33100;-84
2023/09/25 07:10:10;;;;;;;1.95;1.00;;;;;;;18.94;100.00;101147.44;5387659;33;34193;-85
2023/09/25 07:13:13;;;;;;;2.12;1.10;;;;;;;18.97;100.00;101147.00;5387519;32;33220;-84
2023/09/25 07:16:16;;;;;;;0.93;0.93;;;;;;;19.19;100.00;101144.84;5415867;32;33246;-85
2023/09/25 07:19:19;;;;;;;3.50;1.42;;;;;;;19.43;100.00;101146.81;5415865;32;34190;-84
2023/09/25 07:22:27;;;;;;;4.72;1.50;;;;;;;19.73;100.00;101148.16;5409696;32;33031;-84
2023/09/25 07:25:31;;;;;;;1.17;1.00;;;;;;;19.81;100.00;101147.91;5417984;32;33246;-89
2023/09/25 07:28:34;;;;;;;6.72;1.80;;;;;;;19.84;100.00;101139.28;5383264;32;33411;-88
2023/09/25 07:31:38;;;;;;;3.42;1.17;;;;;;;19.99;100.00;101142.53;5386944;32;33076;-85
2023/09/25 07:34:42;;;;;;;3.17;1.40;;;;;;;20.02;100.00;101133.03;5398314;32;33279;-84
2023/09/25 07:37:47;;;;;;;2.35;1.30;;;;;;;20.00;100.00;101125.06;5386276;33;34025;-85
2023/09/25 07:40:50;;;;;;;1.95;1.37;;;;;;;20.22;100.00;101138.34;5378978;33;33791;-85
2023/09/25 07:44:07;;;;;;;2.20;1.40;;;;;;;20.29;100.00;101144.59;5399328;32;33379;-85
2023/09/25 07:47:12;;;;;;;2.95;1.52;;;;;;;20.15;100.00;101150.19;5393938;32;33595;-85
2023/09/25 07:50:19;;;;;;;4.82;1.50;;;;;;;20.40;100.00;101146.59;5403542;32;34129;-85
2023/09/25 07:53:23;;;;;;;2.22;1.67;;;;;;;20.64;100.00;101141.38;5406839;32;33264;-85
2023/09/25 07:56:26;;;;;;;2.87;1.27;;;;;;;20.65;100.00;101148.50;5400285;32;33450;-85
2023/09/25 07:59:29;;;;;;;2.58;1.73;;;;;;;20.51;100.00;101156.81;5390849;32;33054;-85
2023/09/25 08:02:38;;;;;;;2.47;1.30;;;;;;;20.66;100.00;101150.19;5390438;32;33325;-85
2023/09/25 08:05:42;;;;;;;4.37;1.92;;;;;;;20.74;100.00;101158.94;5416060;32;32958;-85
2023/09/25 08:08:45;;;;;;;3.85;1.62;;;;;;;20.48;100.00;101168.22;5420953;32;34235;-85
2023/09/25 08:11:48;;;;;;;4.25;1.75;;;;;;;20.82;100.00;101175.06;5403127;32;33523;-85
2023/09/25 08:14:53;;;;;;;6.90;2.05;;;;;;;21.15;100.00;101179.34;5402720;32;33465;-85
2023/09/25 08:17:56;;;;;;;2.12;1.50;;;;;;;21.03;100.00;101181.16;5402974;32;33843;-86
2023/09/25 08:21:00;;;;;;;3.53;1.70;;;;;;;21.18;100.00;101198.06;5390513;32;33628;-84
2023/09/25 08:24:05;;;;;;;2.40;1.58;;;;;;;21.38;100.00;101177.84;5389749;32;32898;-86
2023/09/25 08:27:09;;;;;;;4.32;1.90;;;;;;;21.49;100.00;101186.13;5389133;32;33036;-85
2023/09/25 08:30:13;;;;;;;6.80;2.20;;;;;;;21.57;100.00;101189.63;5401616;32;33272;-85
2023/09/25 08:33:16;;;;;;;3.53;1.42;;;;;;;21.38;100.00;101183.31;5404405;32;33671;-85
2023/09/25 08:36:19;;;;;;;4.78;1.85;;;;;;;21.18;100.00;101176.16;5416369;32;33466;-85
2023/09/25 08:39:22;;;;;;;5.78;1.67;;;;;;;21.29;100.00;101166.31;5390811;33;33328;-85
2023/09/25 08:42:26;;;;;;;4.05;1.58;;;;;;;21.29;100.00;101171.78;5397568;33;33262;-85
2023/09/25 08:45:29;;;;;;;5.50;2.00;;;;;;;21.36;100.00;101180.81;5384775;33;34071;-85
2023/09/25 08:48:32;;;;;;;4.25;1.80;;;;;;;21.45;100.00;101176.69;5387543;32;34161;-85
2023/09/25 08:51:37;;;;;;;3.55;1.62;;;;;;;21.36;100.00;101174.47;5400115;32;34013;-85
2023/09/25 08:54:40;;;;;;;4.93;2.03;;;;;;;21.45;100.00;101171.22;5407875;32;33499;-85
2023/09/25 08:57:45;;;;;;;1.50;1.40;;;;;;;21.23;100.00;101180.94;5404735;32;33358;-85
2023/09/25 09:00:48;;;;;;;5.30;1.77;;;;;;;21.44;100.00;101175.03;5395989;32;32915;-85
2023/09/25 09:03:52;;;;;;;2.25;1.87;;;;;;;21.72;100.00;101176.34;5412328;32;34083;-85
2023/09/25 09:06:55;;;;;;;5.70;2.10;;;;;;;21.68;100.00;101175.97;5392372;33;33889;-85
2023/09/25 09:09:59;;;;;;;4.50;1.90;;;;;;;21.58;100.00;101180.31;5399769;33;34605;-85
2023/09/25 09:13:12;;;;;;;4.07;2.22;;;;;;;21.50;100.00;101176.00;5384838;33;33357;-88
2023/09/25 09:16:19;;;;;;;3.45;1.83;;;;;;;21.49;100.00;101183.38;5389670;32;33979;-86
2023/09/25 09:19:22;;;;;;;2.20;1.95;;;;;;;21.55;100.00;101186.25;5416318;32;33866;-85
2023/09/25 09:22:27;;;;;;;6.80;2.40;;;;;;;21.36;100.00;101190.91;5401602;32;34241;-86
2023/09/25 09:25:31;;;;;;;4.35;1.98;;;;;;;21.37;100.00;101179.75;5373764;32;32903;-85
2023/09/25 09:28:34;;;;;;;3.42;2.10;;;;;;;21.37;100.00;101181.66;5373965;32;32994;-85
2023/09/25 09:31:38;;;;;;;4.50;2.12;;;;;;;21.59;100.00;101185.59;5399998;32;32979;-85
2023/09/25 09:34:41;;;;;;;3.17;1.80;;;;;;;21.51;100.00;101189.47;5404106;32;33368;-85
2023/09/25 09:37:45;;;;;;;5.70;2.30;;;;;;;21.93;100.00;101181.28;5416886;32;33327;-85
2023/09/25 09:40:51;;;;;;;4.15;2.08;;;;;;;22.36;100.00;101165.69;5402395;32;34115;-85
2023/09/25 09:43:54;;;;;;;4.93;2.10;;;;;;;22.67;100.00;101166.41;5376738;32;33238;-85
2023/09/25 09:47:01;;;;;;;4.00;2.30;;;;;;;22.65;100.00;101169.41;5410001;32;33411;-85
2023/09/25 09:50:07;;;;;;;6.03;2.28;;;;;;;22.96;100.00;101173.72;5416515;32;33512;-84
2023/09/25 09:53:12;;;;;;;3.47;2.03;;;;;;;23.06;100.00;101173.94;5404896;32;33155;-85
2023/09/25 09:56:18;;;;;;;3.72;2.12;;;;;;;23.76;100.00;101180.34;5399761;32;33356;-84
2023/09/25 09:59:20;;;;;;;3.55;2.05;;;;;;;24.04;100.00;101164.88;5415557;32;33014;-84
2023/09/25 10:02:29;;;;;;;4.28;2.17;;;;;;;23.82;100.00;101175.75;5403926;32;34068;-83
2023/09/25 10:05:43;;;;;;;5.15;2.08;;;;;;;24.12;100.00;101173.56;5408882;32;34772;-84
2023/09/25 10:09:00;;;;;;;2.55;2.10;;;;;;;24.62;99.25;101175.50;5386048;32;34243;-83
2023/09/25 10:12:04;;;;;;;3.60;2.30;;;;;;;24.97;100.00;101171.59;5402045;32;34039;-84
2023/09/25 10:15:12;;;;;;;4.78;2.25;;;;;;;24.79;98.77;101177.41;5389531;32;33391;-84
2023/09/25 10:18:14;;;;;;;3.23;1.77;;;;;;;24.49;99.79;101178.59;5401807;32;33203;-84
2023/09/25 10:21:18;;;;;;;4.65;1.92;;;;;;;23.95;100.00;101179.03;5374888;33;33535;-84
2023/09/25 10:24:25;;;;;;;8.88;2.15;;;;;;;23.59;100.00;101166.50;5397376;32;33871;-84
2023/09/25 10:27:31;;;;;;;4.20;2.12;;;;;;;23.81;100.00;101172.19;5416800;32;33070;-84
2023/09/25 10:30:35;;;;;;;4.87;2.00;;;;;;;23.97;100.00;101173.28;5403682;32;33040;-84
2023/09/25 10:33:59;;;;;;;3.28;1.70;;;;;;;23.64;100.00;101168.53;5393479;32;33159;-85
2023/09/25 10:37:04;;;;;;;5.95;1.62;;;;;;;23.72;100.00;101174.50;5404431;32;33157;-84
2023/09/25 10:40:09;;;;;;;3.67;1.90;;;;;;;23.49;100.00;101175.38;5396005;33;33453;-84
2023/09/25 10:43:14;;;;;;;5.03;2.00;;;;;;;23.67;100.00;101168.03;5412724;32;34079;-84
2023/09/25 10:46:18;;;;;;;5.22;1.95;;;;;;;23.82;100.00;101165.59;5429278;32;33539;-84
2023/09/25 10:49:23;;;;;;;4.57;1.85;;;;;;;24.43;100.00;101165.84;5412411;32;34186;-82
2023/09/25 10:52:26;;;;;;;5.07;1.80;;;;;;;24.47;98.04;101160.69;5397596;33;33286;-84
2023/09/25 10:55:29;;;;;;;3.72;2.05;;;;;;;24.67;96.94;101167.31;5397347;32;32241;-84
2023/09/25 10:58:32;;;;;;;3.70;1.83;;;;;;;25.78;93.71;101169.03;5396551;32;33072;-83
2023/09/25 11:01:37;;;;;;;2.85;1.95;;;;;;;25.95;90.01;101163.44;5421179;32;32926;-83
2023/09/25 11:04:40;;;;;;;5.12;2.03;;;;;;;26.32;89.29;101154.38;5420344;32;34102;-83
2023/09/25 11:07:46;;;;;;;5.53;1.92;;;;;;;26.81;89.18;101162.47;5405250;32;34376;-83
2023/09/25 11:10:49;;;;;;;2.62;1.62;;;;;;;26.38;85.08;101158.00;5406752;32;34240;-83
2023/09/25 11:13:54;;;;;;;4.65;1.90;;;;;;;25.66;88.30;101150.97;5398387;32;33509;-84
2023/09/25 11:16:57;;;;;;;3.35;1.60;;;;;;;26.44;84.44;101145.87;5392324;33;33392;-84
2023/09/25 11:20:06;;;;;;;5.32;2.03;;;;;;;26.35;83.82;101142.78;5397567;32;32964;-85
2023/09/25 11:23:13;;;;;;;2.45;1.77;;;;;;;26.38;83.04;101139.50;5391496;32;33171;-85
2023/09/25 11:26:27;;;;;;;7.07;2.70;;;;;;;27.11;80.48;101125.03;5409223;32;33352;-85
2023/09/25 11:29:30;;;;;;;3.05;1.87;;;;;;;27.41;79.47;101129.03;5396979;32;32965;-85
2023/09/25 11:32:33;;;;;;;7.47;2.17;;;;;;;26.99;79.46;101132.72;5383359;33;33741;-84
2023/09/25 11:35:37;;;;;;;6.20;1.75;;;;;;;27.09;81.92;101128.09;5396838;33;33331;-84
2023/09/25 11:38:41;;;;;;;5.62;2.50;;;;;;;27.98;77.79;101125.31;5383614;32;33814;-84
2023/09/25 11:41:47;;;;;;;6.68;1.60;;;;;;;28.92;74.68;101126.56;5389297;32;34052;-85
2023/09/25 11:44:50;;;;;;;4.07;2.05;;;;;;;30.87;65.39;101123.28;5392120;32;33046;-84
2023/09/25 11:47:53;;;;;;;3.65;1.98;;;;;;;31.88;61.79;101119.38;5398893;32;33291;-85
2023/09/25 11:50:57;;;;;;;4.87;2.35;;;;;;;33.16;55.90;101108.69;5378794;32;33193;-85
2023/09/25 11:54:00;;;;;;;4.10;1.42;;;;;;;33.69;55.36;101107.25;5385380;33;34080;-85
2023/09/25 11:57:08;;;;;;;4.95;1.50;;;;;;;33.73;51.79;101119.44;5408542;32;34024;-85
2023/09/25 12:00:12;;;;;;;4.45;2.22;;;;;;;34.03;49.74;101103.88;5398199;32;33608;-85
2023/09/25 12:03:16;;;;;;;6.65;1.83;;;;;;;34.20;47.83;101106.81;5413819;32;33391;-85
2023/09/25 12:06:24;;;;;;;2.60;1.50;;;;;;;33.53;48.91;101095.63;5400744;32;33402;-85
2023/09/25 12:09:27;;;;;;;5.97;1.52;;;;;;;33.50;48.96;101099.00;5389969;32;33103;-88
2023/09/25 12:12:30;;;;;;;6.93;1.58;;;;;;;34.07;47.18;101099.31;5401627;32;34279;-87
2023/09/25 12:15:35;;;;;;;1.70;1.40;;;;;;;35.30;45.64;101099.53;5398840;32;33353;-87
2023/09/25 12:18:38;;;;;;;2.10;1.30;;;;;;;35.52;42.48;101089.34;5397406;32;33043;-84
2023/09/25 12:21:42;;;;;;;2.62;1.40;;;;;;;34.32;44.80;101078.28;5384083;33;33454;-84
2023/09/25 12:24:45;;;;;;;3.45;1.50;;;;;;;34.67;42.07;101079.28;5396077;32;32107;-83
2023/09/25 12:27:48;;;;;;;4.95;1.40;;;;;;;34.33;41.53;101084.69;5385303;33;34243;-83
2023/09/25 12:30:51;;;;;;;4.32;1.73;;;;;;;34.95;42.51;101067.81;5376808;32;33416;-84
2023/09/25 12:33:54;;;;;;;4.03;1.75;;;;;;;34.65;41.38;101061.16;5386578;32;34124;-83
2023/09/25 12:37:00;;;;;;;5.47;2.10;;;;;;;35.31;40.11;101059.19;5387462;32;33148;-83
2023/09/25 12:40:04;;;;;;;5.32;1.75;;;;;;;34.24;40.97;101065.06;5405481;32;33478;-84
2023/09/25 12:43:07;;;;;;;3.62;1.40;;;;;;;33.84;42.29;101063.00;5395006;33;34245;-84
2023/09/25 12:46:10;;;;;;;3.95;1.25;;;;;;;35.24;40.26;101049.63;5382691;32;33798;-83
2023/09/25 12:49:13;;;;;;;1.65;1.15;;;;;;;36.73;36.13;101052.62;5404603;32;34075;-84
2023/09/25 12:52:17;;;;;;;2.87;1.77;;;;;;;36.88;35.82;101051.22;5397819;32;33354;-84
2023/09/25 12:55:20;;;;;;;7.30;1.70;;;;;;;38.38;32.53;101052.38;5400816;32;34036;-84
2023/09/25 12:58:23;;;;;;;3.60;1.55;;;;;;;39.30;30.09;101045.31;5411831;32;33266;-84
2023/09/25 13:01:26;;;;;;;3.40;1.20;;;;;;;39.98;29.20;101052.88;5404691;32;33129;-84
2023/09/25 13:04:31;;;;;;;2.03;1.30;;;;;;;41.11;28.59;101059.78;5416788;32;33303;-83
2023/09/25 13:07:34;;;;;;;6.12;1.45;;;;;;;41.07;27.86;101052.41;5391569;32;34140;-84
2023/09/25 13:10:37;;;;;;;2.70;1.20;;;;;;;39.50;29.49;101054.75;5365972;33;33498;-83
2023/09/25 13:13:40;;;;;;;6.53;1.60;;;;;;;39.42;29.86;101060.16;5400069;32;33142;-84
2023/09/25 13:16:43;;;;;;;6.07;1.58;;;;;;;39.89;28.74;101056.69;5420621;32;33839;-83
2023/09/25 13:19:48;;;;;;;2.70;1.35;;;;;;;39.46;29.02;101057.44;5393469;32;33349;-83
2023/09/25 13:22:52;;;;;;;4.05;1.60;;;;;;;39.32;29.77;101052.25;5395155;32;34085;-83
2023/09/25 13:25:55;;;;;;;5.65;1.37;;;;;;;39.17;30.05;101061.41;5384173;33;32913;-83
2023/09/25 13:28:58;;;;;;;2.67;1.50;;;;;;;37.22;31.86;101054.97;5387806;32;33566;-83
2023/09/25 13:32:01;;;;;;;4.60;1.58;;;;;;;35.92;34.86;101061.97;5388123;32;33117;-83
2023/09/25 13:35:05;;;;;;;2.03;1.30;;;;;;;35.90;35.76;101055.06;5402559;32;33320;-83
2023/09/25 13:38:08;;;;;;;6.07;1.75;;;;;;;36.27;34.70;101050.66;5396890;32;32859;-83
2023/09/25 13:41:12;;;;;;;6.30;1.62;;;;;;;35.81;34.85;101049.47;5415557;32;33351;-83
2023/09/25 13:44:15;;;;;;;3.47;1.52;;;;;;;33.36;38.78;101046.81;5413016;32;33411;-83
2023/09/25 13:47:20;;;;;;;2.42;1.60;;;;;;;33.23;39.72;101046.87;5389243;32;33139;-83
2023/09/25 13:50:24;;;;;;;1.48;1.37;;;;;;;31.97;42.71;101047.97;5402679;32;32705;-83
2023/09/25 13:53:27;;;;;;;4.03;1.70;;;;;;;31.71;43.58;101049.47;5382800;32;32665;-83
2023/09/25 13:56:33;;;;;;;4.40;1.60;;;;;;;32.88;41.30;101038.13;5387019;32;32970;-83
2023/09/25 13:59:36;;;;;;;10.02;1.92;;;;;;;33.96;38.95;101033.63;5370578;32;34268;-83
2023/09/25 14:02:43;;;;;;;3.97;1.37;;;;;;;31.93;42.00;101030.22;5404874;32;34195;-83
2023/09/25 14:05:46;;;;;;;4.75;1.60;;;;;;;30.86;44.88;101029.00;5391200;32;33381;-83
2023/09/25 14:08:49;;;;;;;2.50;1.65;;;;;;;30.13;47.93;101024.53;5384141;33;33288;-83
2023/09/25 14:11:53;;;;;;;4.22;1.92;;;;;;;28.91;51.02;101029.84;5384391;33;32941;-83
2023/09/25 14:14:57;;;;;;;4.87;1.85;;;;;;;28.44;55.00;101014.53;5384904;32;33231;-86
2023/09/25 14:18:00;;;;;;;6.90;1.90;;;;;;;27.95;59.52;101018.75;5396277;32;33318;-83
2023/09/25 14:21:04;;;;;;;4.25;2.10;;;;;;;27.05;64.04;101021.09;5405807;32;33519;-85
2023/09/25 14:24:07;;;;;;;6.10;1.73;;;;;;;26.78;66.39;101024.88;5384094;33;34133;-85
2023/09/25 14:27:10;;;;;;;4.65;1.92;;;;;;;26.39;68.66;101030.75;5384553;33;33090;-84
2023/09/25 14:30:15;;;;;;;4.20;1.83;;;;;;;26.19;70.31;101036.13;5395255;32;33642;-84
2023/09/25 14:33:18;;;;;;;6.95;2.28;;;;;;;25.97;72.15;101027.97;5403785;32;33310;-84
2023/09/25 14:36:22;;;;;;;4.07;1.55;;;;;;;25.75;73.15;101022.53;5381049;32;33257;-85
2023/09/25 14:39:28;;;;;;;4.07;2.00;;;;;;;25.60;74.39;101023.25;5399743;32;33534;-84
2023/09/25 14:42:32;;;;;;;2.28;1.75;;;;;;;25.40;77.16;101034.09;5374178;33;33155;-84
2023/09/25 14:45:36;;;;;;;3.55;1.75;;;;;;;25.25;76.33;101026.50;5375519;33;33881;-84
2023/09/25 14:48:46;;;;;;;7.07;2.20;;;;;;;25.04;77.48;101029.00;5392718;33;33801;-84
2023/09/25 14:51:51;;;;;;;5.32;2.08;;;;;;;25.04;78.58;101034.50;5415645;32;33546;-84
2023/09/25 14:54:55;;;;;;;6.15;1.95;;;;;;;24.83;81.47;101027.94;5420641;32;33610;-86
2023/09/25 14:57:58;;;;;;;6.12;2.05;;;;;;;24.79;80.72;101021.25;5393589;33;33239;-86
2023/09/25 15:01:01;;;;;;;9.95;1.90;;;;;;;24.65;79.38;101030.97;5393252;33;34622;-86
2023/09/25 15:04:04;;;;;;;6.10;2.45;;;;;;;24.65;79.70;101019.97;5391773;33;33871;-85
2023/09/25 15:07:10;;;;;;;8.32;1.77;;;;;;;24.53;80.32;101025.59;5381341;33;34255;-85
2023/09/25 15:10:13;;;;;;;4.85;2.28;;;;;;;24.50;80.60;101028.03;5402052;33;33382;-85
2023/09/25 15:13:16;;;;;;;3.42;2.05;;;;;;;24.34;80.31;101024.22;5384231;33;33045;-85
2023/09/25 15:16:19;;;;;;;4.97;1.75;;;;;;;24.33;80.45;101026.09;5383630;33;32977;-85
2023/09/25 15:19:22;;;;;;;4.35;1.87;;;;;;;24.28;82.02;101031.56;5367492;33;172138;-86
2023/09/25 15:22:26;;;;;;;4.87;2.10;;;;;;;24.21;82.32;101031.72;5397560;33;34177;-85
2023/09/25 15:25:30;;;;;;;3.05;2.00;;;;;;;24.13;84.12;101034.06;5385137;33;32971;-85
2023/09/25 15:28:33;;;;;;;4.85;2.17;;;;;;;24.08;84.62;101029.34;5389332;33;33800;-85
2023/09/25 15:31:36;;;;;;;5.65;2.33;;;;;;;24.04;83.72;101039.16;5384541;33;34568;-85
2023/09/25 15:34:41;;;;;;;4.37;2.00;;;;;;;23.97;84.85;101041.25;5385570;33;33239;-85
2023/09/25 15:37:45;;;;;;;6.37;2.08;;;;;;;23.96;85.78;101043.19;5386466;33;33397;-85
2023/09/25 15:40:49;;;;;;;3.15;1.80;;;;;;;23.87;87.23;101039.19;5397966;33;33370;-86
2023/09/25 15:43:52;;;;;;;5.80;2.25;;;;;;;23.80;88.14;101040.44;5396901;33;34423;-86
2023/09/25 15:46:56;;;;;;;5.68;2.47;;;;;;;23.69;90.12;101043.00;5383544;33;33426;-85
2023/09/25 15:49:59;;;;;;;5.53;2.10;;;;;;;23.61;89.95;101043.41;5383766;33;33822;-85
2023/09/25 15:53:02;;;;;;;3.37;2.00;;;;;;;23.56;90.77;101042.47;5384916;33;33005;-85
2023/09/25 15:56:05;;;;;;;5.68;2.12;;;;;;;23.51;92.86;101044.03;5383356;33;33108;-85
